In Rescue
 
Open Full Screen Window  High Contrast Mode
Wind Gusting 19 knots
13
August 09, 2020 6:25 PM CDT
Weather Information
Wind Direction
  230 °
Wind Speed
  13 kt (15 mph)
Wind Gust
  19 kt (22 mph)
Altimeter
29.74 in
Visibility
---
Temperature
19° C
66° F
Dewpoint
16° C
61° F
Humidity
83%
1hr Rain Fall
00.00 in.
24hr Rain Fall
00.02 in.
Sky Condition
Missing

METAR KFGN 092325Z AUTO 23013G19KT 19/16 A2974 RMK AO2 PWINO

FAA Disclaimer: The data displayed is for advisory purposes only and is not to be used for flight planning or operations.
Missing Cloud Data